sensor_id;sensor_type;location;lat;lon;timestamp;P1;durP1;ratioP1;P2;durP2;ratioP2
48853;SDS011;34673;52.808;17.856;2023-05-24T00:00:22;14.50;;;10.95;;
48853;SDS011;34673;52.808;17.856;2023-05-24T00:02:49;15.90;;;11.73;;
48853;SDS011;34673;52.808;17.856;2023-05-24T00:05:16;19.17;;;10.95;;
48853;SDS011;34673;52.808;17.856;2023-05-24T00:07:44;18.23;;;11.88;;
48853;SDS011;34673;52.808;17.856;2023-05-24T00:10:11;16.10;;;11.23;;
48853;SDS011;34673;52.808;17.856;2023-05-24T00:12:38;14.98;;;10.50;;
48853;SDS011;34673;52.808;17.856;2023-05-24T00:15:06;16.10;;;11.75;;
48853;SDS011;34673;52.808;17.856;2023-05-24T00:17:33;15.88;;;11.32;;
48853;SDS011;34673;52.808;17.856;2023-05-24T00:20:10;17.35;;;11.50;;
48853;SDS011;34673;52.808;17.856;2023-05-24T00:22:39;16.63;;;11.32;;
48853;SDS011;34673;52.808;17.856;2023-05-24T00:25:07;15.10;;;10.93;;
48853;SDS011;34673;52.808;17.856;2023-05-24T00:27:34;17.00;;;12.00;;
48853;SDS011;34673;52.808;17.856;2023-05-24T00:30:03;15.57;;;11.32;;
48853;SDS011;34673;52.808;17.856;2023-05-24T00:32:31;14.35;;;11.55;;
48853;SDS011;34673;52.808;17.856;2023-05-24T00:34:59;15.15;;;10.68;;
48853;SDS011;34673;52.808;17.856;2023-05-24T00:37:26;14.48;;;10.77;;
48853;SDS011;34673;52.808;17.856;2023-05-24T00:39:55;16.77;;;10.68;;
48853;SDS011;34673;52.808;17.856;2023-05-24T00:42:22;13.73;;;10.40;;
48853;SDS011;34673;52.808;17.856;2023-05-24T00:44:49;14.55;;;9.85;;
48853;SDS011;34673;52.808;17.856;2023-05-24T00:47:17;14.70;;;10.10;;
48853;SDS011;34673;52.808;17.856;2023-05-24T00:49:44;11.73;;;9.07;;
48853;SDS011;34673;52.808;17.856;2023-05-24T00:52:12;14.48;;;10.45;;
48853;SDS011;34673;52.808;17.856;2023-05-24T00:54:39;14.95;;;10.05;;
48853;SDS011;34673;52.808;17.856;2023-05-24T00:57:07;11.93;;;8.52;;
48853;SDS011;34673;52.808;17.856;2023-05-24T00:59:34;11.98;;;9.30;;
48853;SDS011;34673;52.808;17.856;2023-05-24T01:02:03;13.77;;;9.00;;
48853;SDS011;34673;52.808;17.856;2023-05-24T01:04:30;10.57;;;8.43;;
48853;SDS011;34673;52.808;17.856;2023-05-24T01:10:09;12.55;;;9.85;;
48853;SDS011;34673;52.808;17.856;2023-05-24T01:13:01;14.20;;;10.18;;
48853;SDS011;34673;52.808;17.856;2023-05-24T01:15:40;17.25;;;10.30;;
48853;SDS011;34673;52.808;17.856;2023-05-24T01:18:19;13.93;;;9.65;;
48853;SDS011;34673;52.808;17.856;2023-05-24T01:20:53;15.20;;;11.07;;
48853;SDS011;34673;52.808;17.856;2023-05-24T01:26:05;12.90;;;9.48;;
48853;SDS011;34673;52.808;17.856;2023-05-24T01:28:47;13.75;;;9.13;;
48853;SDS011;34673;52.808;17.856;2023-05-24T01:31:14;14.88;;;9.77;;
48853;SDS011;34673;52.808;17.856;2023-05-24T01:33:43;14.07;;;10.02;;
48853;SDS011;34673;52.808;17.856;2023-05-24T01:36:10;12.70;;;10.10;;
48853;SDS011;34673;52.808;17.856;2023-05-24T01:38:38;12.15;;;9.45;;
48853;SDS011;34673;52.808;17.856;2023-05-24T01:41:14;14.98;;;9.93;;
48853;SDS011;34673;52.808;17.856;2023-05-24T01:43:51;14.77;;;9.00;;
48853;SDS011;34673;52.808;17.856;2023-05-24T01:46:28;11.75;;;9.27;;
48853;SDS011;34673;52.808;17.856;2023-05-24T01:49:11;14.43;;;9.43;;
48853;SDS011;34673;52.808;17.856;2023-05-24T01:51:59;14.35;;;9.23;;
48853;SDS011;34673;52.808;17.856;2023-05-24T01:54:30;13.20;;;9.68;;
48853;SDS011;34673;52.808;17.856;2023-05-24T01:57:00;11.60;;;9.10;;
48853;SDS011;34673;52.808;17.856;2023-05-24T01:59:32;14.05;;;9.32;;
48853;SDS011;34673;52.808;17.856;2023-05-24T02:02:01;14.30;;;9.13;;
48853;SDS011;34673;52.808;17.856;2023-05-24T02:04:29;16.80;;;9.52;;
48853;SDS011;34673;52.808;17.856;2023-05-24T02:06:56;12.07;;;9.15;;
48853;SDS011;34673;52.808;17.856;2023-05-24T02:09:24;13.05;;;9.30;;
48853;SDS011;34673;52.808;17.856;2023-05-24T02:11:51;11.23;;;8.93;;
48853;SDS011;34673;52.808;17.856;2023-05-24T02:14:18;12.98;;;8.98;;
48853;SDS011;34673;52.808;17.856;2023-05-24T02:16:46;15.00;;;8.82;;
48853;SDS011;34673;52.808;17.856;2023-05-24T02:19:17;12.40;;;9.65;;
48853;SDS011;34673;52.808;17.856;2023-05-24T02:21:45;11.68;;;8.95;;
48853;SDS011;34673;52.808;17.856;2023-05-24T02:24:12;13.55;;;9.30;;
48853;SDS011;34673;52.808;17.856;2023-05-24T02:26:40;13.40;;;9.85;;
48853;SDS011;34673;52.808;17.856;2023-05-24T02:29:07;14.68;;;8.77;;
48853;SDS011;34673;52.808;17.856;2023-05-24T02:31:35;11.65;;;9.10;;
48853;SDS011;34673;52.808;17.856;2023-05-24T02:34:02;10.43;;;8.68;;
48853;SDS011;34673;52.808;17.856;2023-05-24T02:36:29;11.30;;;8.43;;
48853;SDS011;34673;52.808;17.856;2023-05-24T02:38:58;12.77;;;8.10;;
48853;SDS011;34673;52.808;17.856;2023-05-24T02:41:25;14.27;;;9.20;;
48853;SDS011;34673;52.808;17.856;2023-05-24T02:43:52;10.27;;;8.30;;
48853;SDS011;34673;52.808;17.856;2023-05-24T02:46:20;12.77;;;8.80;;
48853;SDS011;34673;52.808;17.856;2023-05-24T02:48:47;21.75;;;9.00;;
48853;SDS011;34673;52.808;17.856;2023-05-24T02:51:15;15.10;;;10.27;;
48853;SDS011;34673;52.808;17.856;2023-05-24T02:53:42;14.60;;;10.27;;
48853;SDS011;34673;52.808;17.856;2023-05-24T02:56:11;15.23;;;10.65;;
48853;SDS011;34673;52.808;17.856;2023-05-24T02:58:40;16.23;;;11.07;;
48853;SDS011;34673;52.808;17.856;2023-05-24T03:01:07;18.25;;;11.60;;
48853;SDS011;34673;52.808;17.856;2023-05-24T03:03:34;19.30;;;13.55;;
48853;SDS011;34673;52.808;17.856;2023-05-24T03:06:03;20.58;;;13.15;;
48853;SDS011;34673;52.808;17.856;2023-05-24T03:08:33;23.25;;;12.80;;
48853;SDS011;34673;52.808;17.856;2023-05-24T03:11:00;18.77;;;13.45;;
48853;SDS011;34673;52.808;17.856;2023-05-24T03:13:27;19.08;;;13.57;;
48853;SDS011;34673;52.808;17.856;2023-05-24T03:15:55;18.67;;;13.05;;
48853;SDS011;34673;52.808;17.856;2023-05-24T03:18:22;18.40;;;13.40;;
48853;SDS011;34673;52.808;17.856;2023-05-24T03:20:50;21.55;;;14.25;;
48853;SDS011;34673;52.808;17.856;2023-05-24T03:23:17;20.17;;;13.80;;
48853;SDS011;34673;52.808;17.856;2023-05-24T03:25:44;21.52;;;14.10;;
48853;SDS011;34673;52.808;17.856;2023-05-24T03:28:12;19.30;;;13.52;;
48853;SDS011;34673;52.808;17.856;2023-05-24T03:30:42;24.37;;;13.87;;
48853;SDS011;34673;52.808;17.856;2023-05-24T03:33:09;16.27;;;13.02;;
48853;SDS011;34673;52.808;17.856;2023-05-24T03:35:36;18.33;;;13.63;;
48853;SDS011;34673;52.808;17.856;2023-05-24T03:38:04;20.75;;;13.95;;
48853;SDS011;34673;52.808;17.856;2023-05-24T03:40:32;17.77;;;12.77;;
48853;SDS011;34673;52.808;17.856;2023-05-24T03:45:40;18.65;;;13.85;;
48853;SDS011;34673;52.808;17.856;2023-05-24T03:48:07;17.88;;;14.05;;
48853;SDS011;34673;52.808;17.856;2023-05-24T03:50:35;18.77;;;13.02;;
48853;SDS011;34673;52.808;17.856;2023-05-24T03:53:02;17.98;;;13.45;;
48853;SDS011;34673;52.808;17.856;2023-05-24T03:55:29;18.83;;;14.68;;
48853;SDS011;34673;52.808;17.856;2023-05-24T03:57:56;18.83;;;14.88;;
48853;SDS011;34673;52.808;17.856;2023-05-24T04:00:24;17.73;;;13.68;;
48853;SDS011;34673;52.808;17.856;2023-05-24T04:02:52;18.92;;;13.68;;
48853;SDS011;34673;52.808;17.856;2023-05-24T04:05:20;19.92;;;14.52;;
48853;SDS011;34673;52.808;17.856;2023-05-24T04:07:47;22.42;;;14.80;;
48853;SDS011;34673;52.808;17.856;2023-05-24T04:10:17;21.15;;;13.98;;
48853;SDS011;34673;52.808;17.856;2023-05-24T04:12:44;19.20;;;13.90;;
48853;SDS011;34673;52.808;17.856;2023-05-24T04:15:11;19.67;;;14.70;;
48853;SDS011;34673;52.808;17.856;2023-05-24T04:17:42;20.40;;;15.45;;
48853;SDS011;34673;52.808;17.856;2023-05-24T04:20:10;23.58;;;14.80;;
48853;SDS011;34673;52.808;17.856;2023-05-24T04:22:39;18.63;;;14.60;;
48853;SDS011;34673;52.808;17.856;2023-05-24T04:25:06;20.92;;;14.30;;
48853;SDS011;34673;52.808;17.856;2023-05-24T04:27:35;19.90;;;14.40;;
48853;SDS011;34673;52.808;17.856;2023-05-24T04:30:03;19.70;;;14.63;;
48853;SDS011;34673;52.808;17.856;2023-05-24T04:32:31;19.08;;;14.82;;
48853;SDS011;34673;52.808;17.856;2023-05-24T04:34:59;22.60;;;16.08;;
48853;SDS011;34673;52.808;17.856;2023-05-24T04:37:29;20.48;;;15.30;;
48853;SDS011;34673;52.808;17.856;2023-05-24T04:39:57;21.30;;;14.48;;
48853;SDS011;34673;52.808;17.856;2023-05-24T04:42:24;18.50;;;14.95;;
48853;SDS011;34673;52.808;17.856;2023-05-24T04:44:53;17.15;;;13.45;;
48853;SDS011;34673;52.808;17.856;2023-05-24T04:47:20;20.58;;;14.80;;
48853;SDS011;34673;52.808;17.856;2023-05-24T04:49:47;19.48;;;14.63;;
48853;SDS011;34673;52.808;17.856;2023-05-24T04:52:15;19.98;;;14.10;;
48853;SDS011;34673;52.808;17.856;2023-05-24T04:54:43;17.75;;;13.57;;
48853;SDS011;34673;52.808;17.856;2023-05-24T04:57:10;20.50;;;14.50;;
48853;SDS011;34673;52.808;17.856;2023-05-24T04:59:37;17.63;;;13.55;;
48853;SDS011;34673;52.808;17.856;2023-05-24T05:02:04;21.02;;;13.70;;
48853;SDS011;34673;52.808;17.856;2023-05-24T05:04:32;19.42;;;14.23;;
48853;SDS011;34673;52.808;17.856;2023-05-24T05:06:59;20.55;;;13.57;;
48853;SDS011;34673;52.808;17.856;2023-05-24T05:09:26;18.52;;;13.40;;
48853;SDS011;34673;52.808;17.856;2023-05-24T05:11:53;17.73;;;13.43;;
48853;SDS011;34673;52.808;17.856;2023-05-24T05:14:21;21.17;;;13.07;;
48853;SDS011;34673;52.808;17.856;2023-05-24T05:16:48;20.23;;;14.20;;
48853;SDS011;34673;52.808;17.856;2023-05-24T05:19:15;17.90;;;13.23;;
48853;SDS011;34673;52.808;17.856;2023-05-24T05:21:42;20.60;;;13.60;;
48853;SDS011;34673;52.808;17.856;2023-05-24T05:24:10;16.17;;;12.38;;
48853;SDS011;34673;52.808;17.856;2023-05-24T05:26:37;17.80;;;12.20;;
48853;SDS011;34673;52.808;17.856;2023-05-24T05:29:04;15.88;;;12.30;;
48853;SDS011;34673;52.808;17.856;2023-05-24T05:31:32;16.80;;;12.50;;
48853;SDS011;34673;52.808;17.856;2023-05-24T05:33:59;17.98;;;12.25;;
48853;SDS011;34673;52.808;17.856;2023-05-24T05:36:26;21.27;;;12.07;;
48853;SDS011;34673;52.808;17.856;2023-05-24T05:38:53;15.38;;;11.40;;
48853;SDS011;34673;52.808;17.856;2023-05-24T05:41:21;18.23;;;12.55;;
48853;SDS011;34673;52.808;17.856;2023-05-24T05:43:48;15.63;;;11.85;;
48853;SDS011;34673;52.808;17.856;2023-05-24T05:46:15;16.05;;;11.85;;
48853;SDS011;34673;52.808;17.856;2023-05-24T05:48:42;15.32;;;11.60;;
48853;SDS011;34673;52.808;17.856;2023-05-24T05:51:11;17.30;;;13.00;;
48853;SDS011;34673;52.808;17.856;2023-05-24T05:53:39;17.17;;;11.63;;
48853;SDS011;34673;52.808;17.856;2023-05-24T05:56:06;15.18;;;10.40;;
48853;SDS011;34673;52.808;17.856;2023-05-24T05:58:34;17.85;;;11.02;;
48853;SDS011;34673;52.808;17.856;2023-05-24T06:01:01;16.58;;;10.63;;
48853;SDS011;34673;52.808;17.856;2023-05-24T06:03:28;13.15;;;10.05;;
48853;SDS011;34673;52.808;17.856;2023-05-24T06:05:55;15.10;;;10.43;;
48853;SDS011;34673;52.808;17.856;2023-05-24T06:08:23;15.93;;;10.50;;
48853;SDS011;34673;52.808;17.856;2023-05-24T06:10:50;13.60;;;9.95;;
48853;SDS011;34673;52.808;17.856;2023-05-24T06:13:18;15.98;;;10.05;;
48853;SDS011;34673;52.808;17.856;2023-05-24T06:15:45;15.38;;;10.18;;
48853;SDS011;34673;52.808;17.856;2023-05-24T06:18:13;14.05;;;10.27;;
48853;SDS011;34673;52.808;17.856;2023-05-24T06:20:41;13.25;;;9.43;;
48853;SDS011;34673;52.808;17.856;2023-05-24T06:23:11;12.95;;;9.65;;
48853;SDS011;34673;52.808;17.856;2023-05-24T06:25:38;12.90;;;9.60;;
48853;SDS011;34673;52.808;17.856;2023-05-24T06:28:06;15.82;;;8.90;;
48853;SDS011;34673;52.808;17.856;2023-05-24T06:30:33;11.70;;;9.15;;
48853;SDS011;34673;52.808;17.856;2023-05-24T06:33:01;12.07;;;9.05;;
48853;SDS011;34673;52.808;17.856;2023-05-24T06:35:28;11.88;;;8.95;;
48853;SDS011;34673;52.808;17.856;2023-05-24T06:37:55;12.85;;;9.05;;
48853;SDS011;34673;52.808;17.856;2023-05-24T06:40:23;11.90;;;8.45;;
48853;SDS011;34673;52.808;17.856;2023-05-24T06:42:50;11.18;;;8.30;;
48853;SDS011;34673;52.808;17.856;2023-05-24T06:45:17;12.70;;;8.70;;
48853;SDS011;34673;52.808;17.856;2023-05-24T06:47:45;10.95;;;8.20;;
48853;SDS011;34673;52.808;17.856;2023-05-24T06:50:12;12.48;;;8.45;;
48853;SDS011;34673;52.808;17.856;2023-05-24T06:52:40;11.88;;;8.52;;
48853;SDS011;34673;52.808;17.856;2023-05-24T06:55:07;11.60;;;8.27;;
48853;SDS011;34673;52.808;17.856;2023-05-24T06:57:35;10.13;;;7.88;;
48853;SDS011;34673;52.808;17.856;2023-05-24T07:00:02;10.07;;;7.60;;
48853;SDS011;34673;52.808;17.856;2023-05-24T07:02:35;8.98;;;6.93;;
48853;SDS011;34673;52.808;17.856;2023-05-24T07:05:02;8.93;;;7.53;;
48853;SDS011;34673;52.808;17.856;2023-05-24T07:07:30;9.30;;;6.50;;
48853;SDS011;34673;52.808;17.856;2023-05-24T07:09:58;9.88;;;6.25;;
48853;SDS011;34673;52.808;17.856;2023-05-24T07:12:25;9.02;;;6.50;;
48853;SDS011;34673;52.808;17.856;2023-05-24T07:14:52;9.93;;;6.50;;
48853;SDS011;34673;52.808;17.856;2023-05-24T07:17:24;7.53;;;6.18;;
48853;SDS011;34673;52.808;17.856;2023-05-24T07:19:51;7.68;;;6.50;;
48853;SDS011;34673;52.808;17.856;2023-05-24T07:22:18;8.32;;;6.78;;
48853;SDS011;34673;52.808;17.856;2023-05-24T07:24:45;8.50;;;7.15;;
48853;SDS011;34673;52.808;17.856;2023-05-24T07:27:12;7.90;;;6.70;;
48853;SDS011;34673;52.808;17.856;2023-05-24T07:29:39;7.57;;;6.45;;
48853;SDS011;34673;52.808;17.856;2023-05-24T07:32:07;9.18;;;6.60;;
48853;SDS011;34673;52.808;17.856;2023-05-24T07:34:34;8.27;;;6.70;;
48853;SDS011;34673;52.808;17.856;2023-05-24T07:37:01;9.07;;;6.00;;
48853;SDS011;34673;52.808;17.856;2023-05-24T07:39:29;8.50;;;5.97;;
48853;SDS011;34673;52.808;17.856;2023-05-24T07:41:56;7.70;;;6.00;;
48853;SDS011;34673;52.808;17.856;2023-05-24T07:44:23;7.88;;;5.95;;
48853;SDS011;34673;52.808;17.856;2023-05-24T07:46:50;8.82;;;6.18;;
48853;SDS011;34673;52.808;17.856;2023-05-24T07:49:18;8.43;;;5.50;;
48853;SDS011;34673;52.808;17.856;2023-05-24T07:51:45;8.45;;;6.13;;
48853;SDS011;34673;52.808;17.856;2023-05-24T07:54:12;7.22;;;5.57;;
48853;SDS011;34673;52.808;17.856;2023-05-24T07:56:40;8.07;;;6.53;;
48853;SDS011;34673;52.808;17.856;2023-05-24T07:59:08;10.10;;;6.70;;
48853;SDS011;34673;52.808;17.856;2023-05-24T08:01:35;9.43;;;6.95;;
48853;SDS011;34673;52.808;17.856;2023-05-24T08:04:03;8.70;;;6.30;;
48853;SDS011;34673;52.808;17.856;2023-05-24T08:06:31;7.95;;;6.65;;
48853;SDS011;34673;52.808;17.856;2023-05-24T08:09:01;11.10;;;7.13;;
48853;SDS011;34673;52.808;17.856;2023-05-24T08:11:30;9.55;;;6.78;;
48853;SDS011;34673;52.808;17.856;2023-05-24T08:13:57;8.20;;;6.78;;
48853;SDS011;34673;52.808;17.856;2023-05-24T08:16:24;8.70;;;6.47;;
48853;SDS011;34673;52.808;17.856;2023-05-24T08:18:51;8.02;;;6.30;;
48853;SDS011;34673;52.808;17.856;2023-05-24T08:21:20;7.82;;;6.32;;
48853;SDS011;34673;52.808;17.856;2023-05-24T08:23:48;8.20;;;5.85;;
48853;SDS011;34673;52.808;17.856;2023-05-24T08:26:15;7.55;;;6.28;;
48853;SDS011;34673;52.808;17.856;2023-05-24T08:28:44;7.37;;;5.57;;
48853;SDS011;34673;52.808;17.856;2023-05-24T08:31:12;7.10;;;6.07;;
48853;SDS011;34673;52.808;17.856;2023-05-24T08:33:39;7.40;;;6.22;;
48853;SDS011;34673;52.808;17.856;2023-05-24T08:36:06;8.85;;;7.00;;
48853;SDS011;34673;52.808;17.856;2023-05-24T08:38:34;8.35;;;5.93;;
48853;SDS011;34673;52.808;17.856;2023-05-24T08:41:03;9.70;;;7.50;;
48853;SDS011;34673;52.808;17.856;2023-05-24T08:43:33;8.23;;;6.32;;
48853;SDS011;34673;52.808;17.856;2023-05-24T08:46:01;7.57;;;6.30;;
48853;SDS011;34673;52.808;17.856;2023-05-24T08:48:29;9.07;;;6.15;;
48853;SDS011;34673;52.808;17.856;2023-05-24T08:50:57;10.63;;;7.28;;
48853;SDS011;34673;52.808;17.856;2023-05-24T08:53:25;11.77;;;7.13;;
48853;SDS011;34673;52.808;17.856;2023-05-24T08:55:53;10.98;;;7.93;;
48853;SDS011;34673;52.808;17.856;2023-05-24T08:58:21;10.10;;;7.28;;
48853;SDS011;34673;52.808;17.856;2023-05-24T09:00:49;8.65;;;7.32;;
48853;SDS011;34673;52.808;17.856;2023-05-24T09:03:16;11.63;;;7.57;;
48853;SDS011;34673;52.808;17.856;2023-05-24T09:05:44;8.32;;;6.95;;
48853;SDS011;34673;52.808;17.856;2023-05-24T09:08:11;9.90;;;7.72;;
48853;SDS011;34673;52.808;17.856;2023-05-24T09:10:43;11.20;;;7.38;;
48853;SDS011;34673;52.808;17.856;2023-05-24T09:13:18;10.00;;;7.78;;
48853;SDS011;34673;52.808;17.856;2023-05-24T09:15:45;10.98;;;8.50;;
48853;SDS011;34673;52.808;17.856;2023-05-24T09:18:13;9.55;;;7.63;;
48853;SDS011;34673;52.808;17.856;2023-05-24T09:20:40;11.10;;;8.27;;
48853;SDS011;34673;52.808;17.856;2023-05-24T09:23:07;7.93;;;6.57;;
48853;SDS011;34673;52.808;17.856;2023-05-24T09:25:39;9.60;;;7.65;;
48853;SDS011;34673;52.808;17.856;2023-05-24T09:28:11;9.52;;;7.15;;
48853;SDS011;34673;52.808;17.856;2023-05-24T09:30:44;9.13;;;6.65;;
48853;SDS011;34673;52.808;17.856;2023-05-24T09:33:12;9.98;;;7.18;;
48853;SDS011;34673;52.808;17.856;2023-05-24T09:35:42;9.15;;;7.32;;
48853;SDS011;34673;52.808;17.856;2023-05-24T09:40:46;8.77;;;7.38;;
48853;SDS011;34673;52.808;17.856;2023-05-24T09:43:13;7.95;;;7.13;;
48853;SDS011;34673;52.808;17.856;2023-05-24T09:45:41;9.85;;;6.90;;
48853;SDS011;34673;52.808;17.856;2023-05-24T09:48:13;8.88;;;7.72;;
48853;SDS011;34673;52.808;17.856;2023-05-24T09:53:26;10.20;;;7.35;;
48853;SDS011;34673;52.808;17.856;2023-05-24T09:55:54;8.85;;;7.82;;
48853;SDS011;34673;52.808;17.856;2023-05-24T09:58:21;9.43;;;7.70;;
48853;SDS011;34673;52.808;17.856;2023-05-24T10:00:49;9.75;;;8.23;;
48853;SDS011;34673;52.808;17.856;2023-05-24T10:03:16;10.13;;;8.68;;
48853;SDS011;34673;52.808;17.856;2023-05-24T10:05:44;10.48;;;8.82;;
48853;SDS011;34673;52.808;17.856;2023-05-24T10:08:12;11.18;;;7.57;;
48853;SDS011;34673;52.808;17.856;2023-05-24T10:10:40;10.05;;;8.35;;
48853;SDS011;34673;52.808;17.856;2023-05-24T10:13:08;10.27;;;8.40;;
48853;SDS011;34673;52.808;17.856;2023-05-24T10:15:36;9.20;;;7.57;;
48853;SDS011;34673;52.808;17.856;2023-05-24T10:18:04;9.07;;;7.63;;
48853;SDS011;34673;52.808;17.856;2023-05-24T10:20:37;9.63;;;8.30;;
48853;SDS011;34673;52.808;17.856;2023-05-24T10:23:08;10.20;;;7.78;;
48853;SDS011;34673;52.808;17.856;2023-05-24T10:25:37;9.68;;;7.63;;
48853;SDS011;34673;52.808;17.856;2023-05-24T10:28:08;9.00;;;6.82;;
48853;SDS011;34673;52.808;17.856;2023-05-24T10:30:59;10.10;;;7.97;;
48853;SDS011;34673;52.808;17.856;2023-05-24T10:33:28;8.45;;;7.07;;
48853;SDS011;34673;52.808;17.856;2023-05-24T10:35:58;9.60;;;8.18;;
48853;SDS011;34673;52.808;17.856;2023-05-24T10:38:25;9.35;;;7.97;;
48853;SDS011;34673;52.808;17.856;2023-05-24T10:40:52;9.02;;;7.13;;
48853;SDS011;34673;52.808;17.856;2023-05-24T10:43:20;8.98;;;7.15;;
48853;SDS011;34673;52.808;17.856;2023-05-24T10:45:48;9.02;;;7.25;;
48853;SDS011;34673;52.808;17.856;2023-05-24T10:50:49;9.23;;;7.55;;
48853;SDS011;34673;52.808;17.856;2023-05-24T10:53:17;10.98;;;7.32;;
48853;SDS011;34673;52.808;17.856;2023-05-24T11:01:12;8.65;;;6.82;;
48853;SDS011;34673;52.808;17.856;2023-05-24T11:03:50;9.55;;;7.75;;
48853;SDS011;34673;52.808;17.856;2023-05-24T11:06:17;11.68;;;7.70;;
48853;SDS011;34673;52.808;17.856;2023-05-24T11:08:45;10.25;;;7.70;;
48853;SDS011;34673;52.808;17.856;2023-05-24T11:11:13;9.35;;;6.88;;
48853;SDS011;34673;52.808;17.856;2023-05-24T11:13:55;9.57;;;7.35;;
48853;SDS011;34673;52.808;17.856;2023-05-24T11:16:36;8.02;;;6.95;;
48853;SDS011;34673;52.808;17.856;2023-05-24T11:19:19;8.48;;;6.45;;
48853;SDS011;34673;52.808;17.856;2023-05-24T11:21:48;10.43;;;7.20;;
48853;SDS011;34673;52.808;17.856;2023-05-24T11:24:17;9.18;;;7.50;;
48853;SDS011;34673;52.808;17.856;2023-05-24T11:26:45;10.27;;;7.60;;
48853;SDS011;34673;52.808;17.856;2023-05-24T11:29:13;9.77;;;7.30;;
48853;SDS011;34673;52.808;17.856;2023-05-24T11:31:47;10.45;;;8.63;;
48853;SDS011;34673;52.808;17.856;2023-05-24T11:34:16;11.02;;;8.00;;
48853;SDS011;34673;52.808;17.856;2023-05-24T11:36:44;11.65;;;8.00;;
48853;SDS011;34673;52.808;17.856;2023-05-24T11:39:13;15.13;;;8.45;;
48853;SDS011;34673;52.808;17.856;2023-05-24T11:41:40;10.10;;;7.43;;
48853;SDS011;34673;52.808;17.856;2023-05-24T11:44:09;12.10;;;7.82;;
48853;SDS011;34673;52.808;17.856;2023-05-24T11:46:37;13.88;;;7.85;;
48853;SDS011;34673;52.808;17.856;2023-05-24T11:49:05;11.32;;;8.85;;
48853;SDS011;34673;52.808;17.856;2023-05-24T11:51:33;11.38;;;8.07;;
48853;SDS011;34673;52.808;17.856;2023-05-24T11:54:02;11.70;;;8.65;;
48853;SDS011;34673;52.808;17.856;2023-05-24T11:56:30;13.27;;;8.82;;
48853;SDS011;34673;52.808;17.856;2023-05-24T11:59:10;12.40;;;8.37;;
48853;SDS011;34673;52.808;17.856;2023-05-24T12:01:41;11.38;;;9.10;;
48853;SDS011;34673;52.808;17.856;2023-05-24T12:04:09;12.98;;;8.73;;
48853;SDS011;34673;52.808;17.856;2023-05-24T12:06:41;13.82;;;9.20;;
48853;SDS011;34673;52.808;17.856;2023-05-24T12:09:11;13.48;;;9.15;;
48853;SDS011;34673;52.808;17.856;2023-05-24T12:11:45;14.05;;;9.40;;
48853;SDS011;34673;52.808;17.856;2023-05-24T12:14:14;14.70;;;10.02;;
48853;SDS011;34673;52.808;17.856;2023-05-24T12:16:43;14.88;;;10.88;;
48853;SDS011;34673;52.808;17.856;2023-05-24T12:19:15;14.98;;;10.45;;
48853;SDS011;34673;52.808;17.856;2023-05-24T12:21:57;17.40;;;10.88;;
48853;SDS011;34673;52.808;17.856;2023-05-24T12:24:25;16.30;;;10.20;;
48853;SDS011;34673;52.808;17.856;2023-05-24T12:26:56;15.40;;;11.77;;
48853;SDS011;34673;52.808;17.856;2023-05-24T12:29:34;14.60;;;10.52;;
48853;SDS011;34673;52.808;17.856;2023-05-24T12:32:10;15.85;;;10.43;;
48853;SDS011;34673;52.808;17.856;2023-05-24T12:34:40;15.90;;;11.18;;
48853;SDS011;34673;52.808;17.856;2023-05-24T12:37:11;15.88;;;10.85;;
48853;SDS011;34673;52.808;17.856;2023-05-24T12:39:39;17.83;;;11.60;;
48853;SDS011;34673;52.808;17.856;2023-05-24T12:42:09;17.65;;;11.88;;
48853;SDS011;34673;52.808;17.856;2023-05-24T12:44:38;19.35;;;12.70;;
48853;SDS011;34673;52.808;17.856;2023-05-24T12:47:05;17.90;;;11.82;;
48853;SDS011;34673;52.808;17.856;2023-05-24T12:49:34;18.17;;;12.45;;
48853;SDS011;34673;52.808;17.856;2023-05-24T12:52:02;18.60;;;11.98;;
48853;SDS011;34673;52.808;17.856;2023-05-24T12:54:29;17.60;;;12.13;;
48853;SDS011;34673;52.808;17.856;2023-05-24T12:56:57;16.15;;;12.60;;
48853;SDS011;34673;52.808;17.856;2023-05-24T12:59:31;18.98;;;12.07;;
48853;SDS011;34673;52.808;17.856;2023-05-24T13:01:59;18.48;;;12.82;;
48853;SDS011;34673;52.808;17.856;2023-05-24T13:04:28;20.00;;;12.35;;
48853;SDS011;34673;52.808;17.856;2023-05-24T13:06:57;18.10;;;12.73;;
48853;SDS011;34673;52.808;17.856;2023-05-24T13:09:24;20.08;;;13.93;;
48853;SDS011;34673;52.808;17.856;2023-05-24T13:11:53;21.52;;;13.50;;
48853;SDS011;34673;52.808;17.856;2023-05-24T13:14:21;19.92;;;13.32;;
48853;SDS011;34673;52.808;17.856;2023-05-24T13:16:49;22.13;;;13.20;;
48853;SDS011;34673;52.808;17.856;2023-05-24T13:19:16;22.50;;;13.98;;
48853;SDS011;34673;52.808;17.856;2023-05-24T13:21:44;20.20;;;14.07;;
48853;SDS011;34673;52.808;17.856;2023-05-24T13:24:13;22.30;;;13.63;;
48853;SDS011;34673;52.808;17.856;2023-05-24T13:29:09;24.70;;;14.13;;
48853;SDS011;34673;52.808;17.856;2023-05-24T13:34:07;23.77;;;13.88;;
48853;SDS011;34673;52.808;17.856;2023-05-24T13:36:37;22.30;;;13.57;;
48853;SDS011;34673;52.808;17.856;2023-05-24T13:39:05;25.02;;;13.85;;
48853;SDS011;34673;52.808;17.856;2023-05-24T13:41:38;19.20;;;13.10;;
48853;SDS011;34673;52.808;17.856;2023-05-24T13:44:06;24.17;;;13.57;;
48853;SDS011;34673;52.808;17.856;2023-05-24T13:46:33;21.13;;;13.57;;
48853;SDS011;34673;52.808;17.856;2023-05-24T13:49:02;23.70;;;13.43;;
48853;SDS011;34673;52.808;17.856;2023-05-24T13:51:30;20.77;;;13.07;;
48853;SDS011;34673;52.808;17.856;2023-05-24T13:53:57;21.15;;;13.70;;
48853;SDS011;34673;52.808;17.856;2023-05-24T13:56:25;22.25;;;13.57;;
48853;SDS011;34673;52.808;17.856;2023-05-24T13:58:59;19.30;;;12.77;;
48853;SDS011;34673;52.808;17.856;2023-05-24T14:01:28;23.73;;;13.70;;
48853;SDS011;34673;52.808;17.856;2023-05-24T14:03:56;22.13;;;13.45;;
48853;SDS011;34673;52.808;17.856;2023-05-24T14:06:23;22.40;;;14.27;;
48853;SDS011;34673;52.808;17.856;2023-05-24T14:08:50;29.17;;;14.25;;
48853;SDS011;34673;52.808;17.856;2023-05-24T14:11:19;22.83;;;14.15;;
48853;SDS011;34673;52.808;17.856;2023-05-24T14:13:46;24.00;;;13.90;;
48853;SDS011;34673;52.808;17.856;2023-05-24T14:16:17;22.10;;;13.65;;
48853;SDS011;34673;52.808;17.856;2023-05-24T14:18:45;21.70;;;13.60;;
48853;SDS011;34673;52.808;17.856;2023-05-24T14:21:14;21.60;;;14.47;;
48853;SDS011;34673;52.808;17.856;2023-05-24T14:23:44;22.20;;;15.38;;
48853;SDS011;34673;52.808;17.856;2023-05-24T14:26:11;23.00;;;13.23;;
48853;SDS011;34673;52.808;17.856;2023-05-24T14:28:39;28.02;;;14.73;;
48853;SDS011;34673;52.808;17.856;2023-05-24T14:31:06;24.13;;;14.55;;
48853;SDS011;34673;52.808;17.856;2023-05-24T14:33:34;25.33;;;14.75;;
48853;SDS011;34673;52.808;17.856;2023-05-24T14:36:01;25.63;;;13.27;;
48853;SDS011;34673;52.808;17.856;2023-05-24T14:38:28;23.52;;;14.23;;
48853;SDS011;34673;52.808;17.856;2023-05-24T14:40:56;21.98;;;13.45;;
48853;SDS011;34673;52.808;17.856;2023-05-24T14:43:24;22.23;;;14.00;;
48853;SDS011;34673;52.808;17.856;2023-05-24T14:45:52;24.65;;;14.60;;
48853;SDS011;34673;52.808;17.856;2023-05-24T14:48:19;26.50;;;14.70;;
48853;SDS011;34673;52.808;17.856;2023-05-24T14:50:46;22.20;;;13.57;;
48853;SDS011;34673;52.808;17.856;2023-05-24T14:53:14;22.90;;;14.02;;